createdAt,value
2023-02-13T00:02:24.903Z,8.83
2023-02-13T00:04:57.663Z,8.82
2023-02-13T00:07:27.951Z,8.79
2023-02-13T00:09:58.186Z,8.76
2023-02-13T00:12:28.314Z,8.74
2023-02-13T00:14:59.453Z,8.74
2023-02-13T00:17:29.950Z,8.79
2023-02-13T00:20:02.574Z,8.85
2023-02-13T00:22:33.431Z,8.87
2023-02-13T00:25:03.737Z,8.87
2023-02-13T00:27:33.959Z,8.75
2023-02-13T00:30:05.758Z,8.86
2023-02-13T00:32:35.998Z,8.79
2023-02-13T00:35:09.384Z,8.82
2023-02-13T00:37:39.362Z,8.65
2023-02-13T00:40:11.505Z,8.73
2023-02-13T00:42:41.895Z,8.71
2023-02-13T00:45:13.053Z,8.78
2023-02-13T00:47:42.991Z,8.84
2023-02-13T00:50:15.995Z,8.83
2023-02-13T00:52:46.029Z,8.79
2023-02-13T00:55:16.284Z,8.68
2023-02-13T00:57:46.684Z,8.73
2023-02-13T01:00:18.302Z,8.70
2023-02-13T01:02:48.408Z,8.72
2023-02-13T01:05:21.164Z,8.66
2023-02-13T01:07:52.589Z,8.57
2023-02-13T01:10:23.219Z,8.61
2023-02-13T01:12:53.611Z,8.62
2023-02-13T01:15:24.426Z,8.53
2023-02-13T01:17:57.658Z,8.36
2023-02-13T01:20:33.226Z,8.59
2023-02-13T01:23:03.255Z,8.53
2023-02-13T01:25:33.247Z,8.53
2023-02-13T01:28:03.373Z,8.51
2023-02-13T01:30:33.546Z,8.56
2023-02-13T01:33:03.580Z,8.62
2023-02-13T01:35:36.305Z,8.70
2023-02-13T01:38:07.410Z,8.70
2023-02-13T01:40:37.456Z,8.61
2023-02-13T01:43:12.247Z,8.69
2023-02-13T01:45:42.508Z,8.78
2023-02-13T01:48:18.978Z,8.71
2023-02-13T01:50:56.943Z,8.82
2023-02-13T01:53:31.885Z,8.84
2023-02-13T01:56:06.015Z,8.85
2023-02-13T01:58:39.572Z,8.86
2023-02-13T02:01:11.497Z,8.83
2023-02-13T02:03:50.621Z,8.78
2023-02-13T02:06:29.563Z,8.78
2023-02-13T02:09:04.991Z,8.76
2023-02-13T02:11:42.594Z,8.70
2023-02-13T02:14:15.419Z,8.76
2023-02-13T02:16:46.042Z,8.76
2023-02-13T02:19:23.511Z,8.81
2023-02-13T02:22:22.096Z,8.74
2023-02-13T02:25:25.558Z,8.71
2023-02-13T02:28:32.061Z,8.69
2023-02-13T02:31:57.548Z,8.63
2023-02-13T02:34:39.113Z,8.62
2023-02-13T02:37:21.097Z,8.64
2023-02-13T02:40:04.396Z,8.64
2023-02-13T02:42:48.441Z,8.57
2023-02-13T02:45:27.706Z,8.59
2023-02-13T02:48:15.626Z,8.64
2023-02-13T02:50:55.670Z,8.60
2023-02-13T02:53:36.226Z,8.58
2023-02-13T02:56:14.618Z,8.59
2023-02-13T02:59:02.676Z,8.45
2023-02-13T03:01:49.795Z,8.55
2023-02-13T03:04:34.508Z,8.53
2023-02-13T03:07:11.624Z,8.55
2023-02-13T03:09:57.048Z,8.54
2023-02-13T03:12:45.954Z,8.47
2023-02-13T03:15:16.634Z,8.52
2023-02-13T03:17:59.180Z,8.57
2023-02-13T03:20:54.886Z,8.61
2023-02-13T03:23:37.739Z,8.66
2023-02-13T03:26:45.486Z,8.68
2023-02-13T03:29:37.117Z,8.43
2023-02-13T03:32:14.863Z,8.56
2023-02-13T03:35:07.509Z,8.47
2023-02-13T03:37:58.280Z,8.60
2023-02-13T03:40:59.462Z,8.61
2023-02-13T03:43:32.721Z,8.57
2023-02-13T03:46:03.484Z,8.59
2023-02-13T03:48:49.546Z,8.55
2023-02-13T03:51:25.332Z,8.44
2023-02-13T03:53:59.561Z,8.38
2023-02-13T03:56:47.497Z,8.34
2023-02-13T03:59:25.201Z,8.40
2023-02-13T04:02:02.828Z,8.44
2023-02-13T04:04:42.247Z,8.49
2023-02-13T04:07:29.613Z,8.53
2023-02-13T04:10:01.993Z,8.47
2023-02-13T04:12:42.243Z,8.48
2023-02-13T04:15:18.749Z,8.42
2023-02-13T04:17:52.959Z,8.58
2023-02-13T04:20:22.832Z,8.58
2023-02-13T04:22:52.704Z,8.55
2023-02-13T04:25:23.517Z,8.39
2023-02-13T04:27:55.992Z,8.51
2023-02-13T04:30:26.085Z,8.48
2023-02-13T04:32:56.198Z,8.40
2023-02-13T04:35:26.112Z,8.43
2023-02-13T04:37:56.130Z,8.44
2023-02-13T04:40:26.156Z,8.40
2023-02-13T04:42:59.111Z,8.45
2023-02-13T04:45:29.426Z,8.48
2023-02-13T04:48:02.849Z,8.48
2023-02-13T04:50:32.985Z,8.47
2023-02-13T04:53:02.966Z,8.48
2023-02-13T04:55:33.167Z,8.51
2023-02-13T04:58:05.699Z,8.52
2023-02-13T05:00:37.690Z,8.39
2023-02-13T05:03:09.002Z,8.44
2023-02-13T05:05:39.158Z,8.43
2023-02-13T05:08:10.932Z,8.45
2023-02-13T05:10:41.027Z,8.41
2023-02-13T05:13:14.128Z,8.43
2023-02-13T05:15:44.303Z,8.44
2023-02-13T05:18:15.592Z,8.45
2023-02-13T05:20:45.522Z,8.47
2023-02-13T05:23:26.321Z,8.44
2023-02-13T05:25:56.534Z,8.44
2023-02-13T05:28:44.319Z,8.46
2023-02-13T05:31:14.535Z,8.46
2023-02-13T05:33:44.725Z,8.46
2023-02-13T05:36:15.066Z,8.47
2023-02-13T05:38:44.926Z,8.39
2023-02-13T05:41:16.296Z,8.36
2023-02-13T05:43:48.853Z,8.43
2023-02-13T05:46:18.842Z,8.45
2023-02-13T05:48:48.881Z,8.46
2023-02-13T05:51:18.920Z,8.42
2023-02-13T05:53:48.884Z,8.41
2023-02-13T05:56:19.039Z,8.39
2023-02-13T05:58:54.392Z,8.34
2023-02-13T06:01:24.955Z,8.33
2023-02-13T06:03:56.729Z,8.36
2023-02-13T06:06:28.685Z,8.37
2023-02-13T06:08:58.697Z,8.36
2023-02-13T06:11:29.023Z,8.38
2023-02-13T06:14:01.614Z,8.41
2023-02-13T06:16:31.894Z,8.43
2023-02-13T06:19:01.844Z,8.31
2023-02-13T06:21:33.467Z,8.42
2023-02-13T06:24:03.597Z,8.36
2023-02-13T06:26:33.668Z,8.44
2023-02-13T06:29:06.898Z,8.39
2023-02-13T06:31:37.249Z,8.44
2023-02-13T06:34:07.687Z,8.45
2023-02-13T06:36:38.512Z,8.43
2023-02-13T06:39:08.573Z,8.46
2023-02-13T06:41:38.727Z,8.48
2023-02-13T06:44:11.958Z,8.49
2023-02-13T06:46:42.000Z,8.48
2023-02-13T06:49:12.682Z,8.46
2023-02-13T06:51:42.653Z,8.47
2023-02-13T06:54:12.681Z,8.44
2023-02-13T06:56:43.053Z,8.45
2023-02-13T06:59:15.658Z,8.44
2023-02-13T07:01:45.651Z,8.44
2023-02-13T07:04:15.671Z,8.47
2023-02-13T07:06:45.488Z,8.46
2023-02-13T07:09:16.763Z,8.47
2023-02-13T07:11:46.706Z,8.44
2023-02-13T07:14:19.391Z,8.46
2023-02-13T07:16:49.588Z,8.42
2023-02-13T07:19:19.597Z,8.46
2023-02-13T07:21:49.545Z,8.46
2023-02-13T07:24:19.473Z,8.50
2023-02-13T07:26:49.575Z,8.56
2023-02-13T07:29:22.208Z,8.49
2023-02-13T07:31:52.186Z,8.52
2023-02-13T07:34:22.247Z,8.43
2023-02-13T07:36:52.199Z,8.49
2023-02-13T07:39:22.134Z,8.50
2023-02-13T07:41:52.202Z,8.49
2023-02-13T07:44:24.905Z,8.48
2023-02-13T07:46:54.921Z,8.51
2023-02-13T07:49:24.820Z,8.51
2023-02-13T07:51:54.824Z,8.55
2023-02-13T07:54:24.994Z,8.59
2023-02-13T07:56:54.958Z,8.60
2023-02-13T07:59:27.771Z,8.56
2023-02-13T08:01:57.746Z,8.55
2023-02-13T08:04:27.801Z,8.51
2023-02-13T08:06:57.973Z,8.51
2023-02-13T08:09:40.987Z,8.54
2023-02-13T08:12:12.571Z,8.49
2023-02-13T08:14:45.088Z,8.53
2023-02-13T08:17:15.416Z,8.58
2023-02-13T08:19:45.282Z,8.61
2023-02-13T08:22:15.317Z,8.66
2023-02-13T08:24:45.812Z,8.66
2023-02-13T08:27:16.341Z,8.71
2023-02-13T08:29:49.254Z,8.65
2023-02-13T08:32:19.591Z,8.59
2023-02-13T08:34:49.629Z,8.59
2023-02-13T08:37:19.633Z,8.68
2023-02-13T08:39:49.678Z,8.72
2023-02-13T08:42:20.080Z,8.77
2023-02-13T08:44:52.744Z,8.81
2023-02-13T08:47:22.860Z,8.80
2023-02-13T08:49:53.023Z,8.74
2023-02-13T08:52:23.531Z,8.80
2023-02-13T08:54:53.442Z,8.84
2023-02-13T08:57:23.440Z,8.86
2023-02-13T08:59:56.062Z,8.91
2023-02-13T09:02:26.287Z,8.96
2023-02-13T09:04:56.427Z,8.99
2023-02-13T09:07:26.637Z,8.87
2023-02-13T09:09:56.664Z,8.90
2023-02-13T09:12:26.872Z,9.01
2023-02-13T09:14:59.320Z,9.02
2023-02-13T09:17:29.298Z,8.99
2023-02-13T09:19:59.192Z,9.06
2023-02-13T09:22:29.096Z,9.02
2023-02-13T09:25:01.084Z,9.18
2023-02-13T09:27:31.073Z,9.24
2023-02-13T09:30:04.512Z,9.24
2023-02-13T09:32:36.794Z,9.32
2023-02-13T09:35:06.664Z,9.27
2023-02-13T09:37:36.681Z,9.15
2023-02-13T09:40:07.120Z,9.10
2023-02-13T09:42:39.805Z,9.08
2023-02-13T09:45:16.965Z,9.42
2023-02-13T09:47:48.006Z,9.54
2023-02-13T09:50:24.698Z,9.62
2023-02-13T09:52:57.587Z,9.71
2023-02-13T09:55:37.398Z,9.77
2023-02-13T09:58:16.432Z,9.77
2023-02-13T10:00:54.441Z,9.74
2023-02-13T10:03:32.666Z,9.78
2023-02-13T10:06:11.593Z,9.81
2023-02-13T10:08:59.597Z,9.73
2023-02-13T10:11:50.018Z,9.78
2023-02-13T10:14:22.480Z,9.75
2023-02-13T10:17:01.681Z,9.85
2023-02-13T10:19:38.109Z,9.79
2023-02-13T10:22:14.875Z,9.83
2023-02-13T10:24:50.202Z,9.78
2023-02-13T10:27:25.473Z,9.70
2023-02-13T10:30:12.605Z,9.63
2023-02-13T10:33:11.322Z,9.54
2023-02-13T10:35:42.195Z,9.58
2023-02-13T10:38:18.775Z,9.71
2023-02-13T10:41:02.437Z,9.92
2023-02-13T10:43:38.231Z,10.09
2023-02-13T10:46:17.566Z,10.24
2023-02-13T10:49:21.048Z,10.36
2023-02-13T10:51:58.869Z,10.39
2023-02-13T10:54:48.003Z,10.54
2023-02-13T10:57:24.956Z,10.57
2023-02-13T11:00:08.130Z,10.52
2023-02-13T11:02:38.884Z,10.51
2023-02-13T11:05:18.235Z,10.52
2023-02-13T11:07:49.652Z,10.51
2023-02-13T11:10:22.577Z,10.33
2023-02-13T11:12:53.396Z,10.28
2023-02-13T11:15:26.473Z,10.31
2023-02-13T11:17:59.629Z,10.34
2023-02-13T11:20:38.911Z,10.29
2023-02-13T11:23:28.445Z,10.28
2023-02-13T11:26:04.378Z,10.41
2023-02-13T11:28:38.843Z,10.48
2023-02-13T11:31:15.671Z,10.54
2023-02-13T11:33:46.217Z,10.54
2023-02-13T11:36:27.935Z,10.48
2023-02-13T11:39:03.551Z,10.37
2023-02-13T11:41:39.173Z,10.48
2023-02-13T11:44:24.789Z,10.52
2023-02-13T11:46:56.052Z,10.52
2023-02-13T11:49:28.465Z,10.38
2023-02-13T11:52:03.888Z,10.12
2023-02-13T11:54:37.194Z,10.13
2023-02-13T11:57:24.972Z,10.08
2023-02-13T11:59:56.305Z,10.02
2023-02-13T12:02:27.921Z,10.01
2023-02-13T12:05:17.044Z,10.04
2023-02-13T12:07:50.510Z,10.08
2023-02-13T12:10:26.335Z,10.13
2023-02-13T12:12:59.029Z,10.08
2023-02-13T12:15:31.028Z,10.20
2023-02-13T12:18:13.601Z,10.17
2023-02-13T12:20:55.695Z,10.09
2023-02-13T12:23:40.556Z,10.02
2023-02-13T12:26:15.619Z,9.87
2023-02-13T12:29:02.030Z,9.85
2023-02-13T12:31:51.653Z,9.98
2023-02-13T12:35:00.200Z,10.14
2023-02-13T12:37:48.235Z,10.28
2023-02-13T12:40:36.996Z,10.40
2023-02-13T12:43:28.688Z,10.39
2023-02-13T12:46:06.781Z,10.44
2023-02-13T12:48:43.130Z,10.44
2023-02-13T12:51:38.299Z,10.17
2023-02-13T12:54:27.352Z,10.07
2023-02-13T12:57:12.425Z,9.98
2023-02-13T13:00:01.420Z,9.99
2023-02-13T13:02:52.940Z,9.97
2023-02-13T13:05:34.604Z,9.95
2023-02-13T13:08:21.648Z,10.02
2023-02-13T13:11:08.837Z,10.01
2023-02-13T13:13:55.074Z,9.98
2023-02-13T13:16:32.920Z,9.97
2023-02-13T13:19:14.545Z,9.99
2023-02-13T13:21:50.225Z,10.04
2023-02-13T13:24:36.540Z,10.11
2023-02-13T13:27:07.633Z,10.12
2023-02-13T13:29:47.824Z,10.16
2023-02-13T13:32:23.168Z,9.96
2023-02-13T13:34:54.297Z,9.95
2023-02-13T13:37:32.525Z,9.84
2023-02-13T13:40:12.697Z,9.70
2023-02-13T13:42:47.707Z,9.62
2023-02-13T13:45:34.063Z,9.57
2023-02-13T13:48:19.605Z,9.50
2023-02-13T13:50:51.096Z,9.50
2023-02-13T13:53:23.565Z,9.50
2023-02-13T13:56:09.738Z,9.57
2023-02-13T13:58:44.394Z,9.58
2023-02-13T14:01:29.410Z,9.56
2023-02-13T14:04:02.345Z,9.57
2023-02-13T14:07:07.188Z,9.56
2023-02-13T14:09:43.293Z,9.70
2023-02-13T14:12:41.734Z,9.84
2023-02-13T14:15:47.236Z,9.85
2023-02-13T14:18:25.654Z,9.77
2023-02-13T14:20:58.946Z,9.64
2023-02-13T14:23:40.274Z,9.62
2023-02-13T14:26:29.210Z,9.68
2023-02-13T14:29:05.092Z,9.76
2023-02-13T14:31:39.458Z,9.72
2023-02-13T14:34:26.672Z,9.79
2023-02-13T14:37:09.753Z,9.76
2023-02-13T14:39:46.309Z,9.68
2023-02-13T14:42:29.272Z,9.69
2023-02-13T14:45:02.553Z,9.68
2023-02-13T14:47:35.255Z,9.62
2023-02-13T14:50:09.950Z,9.57
2023-02-13T14:52:43.170Z,9.49
2023-02-13T14:55:18.345Z,9.38
2023-02-13T14:57:52.089Z,9.37
2023-02-13T15:00:28.660Z,9.44
2023-02-13T15:03:02.802Z,9.53
2023-02-13T15:05:37.280Z,9.63
2023-02-13T15:08:16.481Z,9.74
2023-02-13T15:10:49.727Z,9.83
2023-02-13T15:13:23.526Z,9.84
2023-02-13T15:15:59.491Z,9.77
2023-02-13T15:18:32.177Z,9.65
2023-02-13T15:21:05.486Z,9.63
2023-02-13T15:23:37.773Z,9.54
2023-02-13T15:26:10.142Z,9.47
2023-02-13T15:28:40.163Z,9.49
2023-02-13T15:31:25.766Z,9.58
2023-02-13T15:33:58.010Z,9.52
2023-02-13T15:36:39.091Z,9.35
2023-02-13T15:39:10.423Z,9.29
2023-02-13T15:41:43.760Z,9.22
2023-02-13T15:44:21.141Z,9.39
2023-02-13T15:46:53.465Z,9.38
2023-02-13T15:49:26.825Z,9.38
2023-02-13T15:52:10.457Z,9.35
2023-02-13T15:54:51.609Z,9.33
2023-02-13T15:57:24.146Z,9.36
2023-02-13T15:59:56.092Z,9.28
2023-02-13T16:02:31.238Z,9.26
2023-02-13T16:05:04.103Z,9.15
2023-02-13T16:07:50.998Z,9.09
2023-02-13T16:10:28.517Z,9.15
2023-02-13T16:13:00.589Z,9.21
2023-02-13T16:15:33.417Z,9.23
2023-02-13T16:18:03.986Z,9.22
2023-02-13T16:20:38.656Z,9.23
2023-02-13T16:23:21.230Z,9.23
2023-02-13T16:25:51.672Z,9.18
2023-02-13T16:28:25.835Z,9.18
2023-02-13T16:31:01.778Z,9.08
2023-02-13T16:33:33.211Z,9.15
2023-02-13T16:36:19.447Z,9.05
2023-02-13T16:38:53.321Z,9.04
2023-02-13T16:41:34.812Z,9.04
2023-02-13T16:44:06.000Z,8.91
2023-02-13T16:46:38.421Z,8.95
2023-02-13T16:49:26.608Z,8.92
2023-02-13T16:52:03.592Z,8.92
2023-02-13T16:54:39.209Z,8.85
2023-02-13T16:57:23.077Z,8.81
2023-02-13T17:00:22.675Z,8.84
2023-02-13T17:02:54.555Z,8.85
2023-02-13T17:05:26.141Z,8.83
2023-02-13T17:07:58.056Z,8.78
2023-02-13T17:10:34.088Z,8.73
2023-02-13T17:13:05.966Z,8.64
2023-02-13T17:15:36.262Z,8.57
2023-02-13T17:18:06.547Z,8.53
2023-02-13T17:20:38.331Z,8.47
2023-02-13T17:23:12.708Z,8.42
2023-02-13T17:25:48.264Z,8.36
2023-02-13T17:28:21.237Z,8.43
2023-02-13T17:30:52.946Z,8.40
2023-02-13T17:33:25.645Z,8.41
2023-02-13T17:35:59.244Z,8.35
2023-02-13T17:38:29.401Z,8.30
2023-02-13T17:41:02.890Z,8.18
2023-02-13T17:43:33.860Z,8.11
2023-02-13T17:46:04.577Z,8.06
2023-02-13T17:48:34.826Z,7.97
2023-02-13T17:51:04.882Z,7.88
2023-02-13T17:53:35.034Z,7.81
2023-02-13T17:56:07.892Z,7.74
2023-02-13T17:58:37.756Z,7.66
2023-02-13T18:01:08.001Z,7.59
2023-02-13T18:03:39.380Z,7.50
2023-02-13T18:06:15.952Z,7.49
2023-02-13T18:08:45.961Z,7.43
2023-02-13T18:11:18.456Z,7.30
2023-02-13T18:13:48.803Z,7.32
2023-02-13T18:16:19.452Z,7.27
2023-02-13T18:18:49.307Z,7.21
2023-02-13T18:21:19.281Z,7.16
2023-02-13T18:23:49.290Z,7.15
2023-02-13T18:26:22.114Z,7.12
2023-02-13T18:28:54.070Z,7.13
2023-02-13T18:31:24.116Z,7.10
2023-02-13T18:33:54.225Z,7.06
2023-02-13T18:36:24.232Z,6.99
2023-02-13T18:38:54.693Z,6.92
2023-02-13T18:41:27.240Z,6.89
2023-02-13T18:43:59.464Z,6.85
2023-02-13T18:46:29.496Z,6.84
2023-02-13T18:48:59.592Z,6.80
2023-02-13T18:51:29.780Z,6.80
2023-02-13T18:54:00.379Z,6.77
2023-02-13T18:56:32.967Z,6.75
2023-02-13T18:59:02.841Z,6.70
2023-02-13T19:01:32.813Z,6.71
2023-02-13T19:04:04.318Z,6.66
2023-02-13T19:06:35.628Z,6.60
2023-02-13T19:09:05.636Z,6.59
2023-02-13T19:11:39.018Z,6.22
2023-02-13T19:14:15.267Z,6.54
2023-02-13T19:16:45.914Z,6.52
2023-02-13T19:19:16.272Z,6.50
2023-02-13T19:21:46.159Z,6.48
2023-02-13T19:24:18.633Z,6.46
2023-02-13T19:26:51.115Z,6.44
2023-02-13T19:29:21.958Z,6.43
2023-02-13T19:31:52.025Z,6.45
2023-02-13T19:34:21.943Z,6.42
2023-02-13T19:36:51.900Z,6.39
2023-02-13T19:39:21.853Z,6.13
2023-02-13T19:41:54.460Z,6.36
2023-02-13T19:44:24.434Z,6.27
2023-02-13T19:46:54.552Z,6.35
2023-02-13T19:49:24.999Z,6.32
2023-02-13T19:51:54.918Z,6.31
2023-02-13T19:54:25.048Z,6.22
2023-02-13T19:57:00.475Z,6.27
2023-02-13T19:59:32.610Z,6.24
2023-02-13T20:02:02.587Z,6.23
2023-02-13T20:04:32.523Z,6.20
2023-02-13T20:07:02.406Z,6.17
2023-02-13T20:09:32.378Z,6.14
2023-02-13T20:12:04.979Z,6.14
2023-02-13T20:14:35.096Z,6.12
2023-02-13T20:17:05.004Z,6.11
2023-02-13T20:19:35.848Z,6.09
2023-02-13T20:22:05.856Z,6.06
2023-02-13T20:24:35.932Z,5.92
2023-02-13T20:27:10.472Z,6.01
2023-02-13T20:29:40.963Z,6.00
2023-02-13T20:32:11.458Z,5.89
2023-02-13T20:34:58.412Z,5.93
2023-02-13T20:37:29.582Z,5.88
2023-02-13T20:39:59.415Z,5.81
2023-02-13T20:42:34.708Z,5.79
2023-02-13T20:45:04.862Z,5.77
2023-02-13T20:47:34.838Z,5.77
2023-02-13T20:50:04.762Z,5.72
2023-02-13T20:52:34.675Z,5.62
2023-02-13T20:55:04.682Z,5.65
2023-02-13T20:57:39.123Z,5.60
2023-02-13T21:00:13.757Z,5.54
2023-02-13T21:02:43.774Z,5.51
2023-02-13T21:05:13.727Z,5.44
2023-02-13T21:07:43.852Z,5.51
2023-02-13T21:10:14.295Z,5.47
2023-02-13T21:12:46.847Z,5.45
2023-02-13T21:15:16.913Z,5.44
2023-02-13T21:17:46.806Z,5.48
2023-02-13T21:20:16.710Z,5.48
2023-02-13T21:22:47.216Z,5.40
2023-02-13T21:25:18.793Z,5.40
2023-02-13T21:27:51.397Z,5.38
2023-02-13T21:30:21.404Z,5.34
2023-02-13T21:32:51.298Z,5.32
2023-02-13T21:35:21.697Z,5.28
2023-02-13T21:37:51.725Z,5.25
2023-02-13T21:40:22.173Z,5.26
2023-02-13T21:42:57.457Z,5.18
2023-02-13T21:45:27.407Z,5.18
2023-02-13T21:47:58.375Z,5.17
2023-02-13T21:50:28.315Z,5.15
2023-02-13T21:52:58.436Z,5.13
2023-02-13T21:55:29.355Z,5.10
2023-02-13T21:58:01.855Z,5.07
2023-02-13T22:00:32.141Z,5.05
2023-02-13T22:03:02.190Z,5.04
2023-02-13T22:05:32.625Z,5.01
2023-02-13T22:08:14.442Z,5.00
2023-02-13T22:10:44.813Z,4.95
2023-02-13T22:13:17.276Z,4.91
2023-02-13T22:15:47.199Z,4.92
2023-02-13T22:18:17.075Z,4.91
2023-02-13T22:20:47.006Z,4.89
2023-02-13T22:23:17.013Z,4.90
2023-02-13T22:25:50.350Z,4.86
2023-02-13T22:28:22.937Z,4.81
2023-02-13T22:30:53.137Z,4.81
2023-02-13T22:33:23.283Z,4.78
2023-02-13T22:35:53.312Z,4.61
2023-02-13T22:38:23.604Z,4.74
2023-02-13T22:40:53.477Z,4.73
2023-02-13T22:43:25.986Z,4.68
2023-02-13T22:45:55.944Z,4.65
2023-02-13T22:48:25.875Z,4.66
2023-02-13T22:50:55.880Z,4.66
2023-02-13T22:53:26.034Z,4.63
2023-02-13T22:55:55.924Z,4.60
2023-02-13T22:58:29.652Z,4.59
2023-02-13T23:01:00.099Z,4.53
2023-02-13T23:03:34.016Z,4.53
2023-02-13T23:06:06.191Z,4.49
2023-02-13T23:08:36.268Z,4.40
2023-02-13T23:11:23.745Z,4.44
2023-02-13T23:13:56.492Z,4.40
2023-02-13T23:16:26.524Z,4.41
2023-02-13T23:18:55.133Z,4.41
2023-02-13T23:21:25.910Z,4.38
2023-02-13T23:23:55.911Z,4.36
2023-02-13T23:26:26.279Z,4.39
2023-02-13T23:29:01.926Z,4.39
2023-02-13T23:31:32.056Z,4.36
2023-02-13T23:34:02.254Z,4.37
2023-02-13T23:36:32.420Z,4.34
2023-02-13T23:39:02.359Z,4.33
2023-02-13T23:41:32.355Z,4.29
2023-02-13T23:44:04.974Z,4.35
2023-02-13T23:46:34.969Z,4.32
2023-02-13T23:49:07.201Z,4.29
2023-02-13T23:51:37.480Z,4.26
2023-02-13T23:54:07.412Z,4.22
2023-02-13T23:56:37.499Z,4.22
2023-02-13T23:59:10.159Z,4.12
